Time;durP1;ratioP1;P1;durP2;ratioP2;P2;SDS_P1;SDS_P2;PMS_P1;PMS_P2;Temp;Humidity;BMP_temperature;BMP_pressure;BME280_temperature;BME280_humidity;BME280_pressure;Samples;Min_cycle;Max_cycle;Signal;HPM_P1;HPM_P2
2023/08/07 00:00:17;;;;;;;4.47;3.67;;;;;;;;;;5061105;28;20414;-59
2023/08/07 00:02:44;;;;;;;6.25;4.80;;;;;;;;;;5063897;28;20442;-60
2023/08/07 00:05:11;;;;;;;8.10;5.20;;;;;;;;;;5060157;28;20470;-60
2023/08/07 00:07:40;;;;;;;5.75;4.50;;;;;;;;;;5063558;28;20437;-59
2023/08/07 00:10:07;;;;;;;9.25;6.03;;;;;;;;;;5063534;28;20412;-54
2023/08/07 00:12:34;;;;;;;8.95;6.53;;;;;;;;;;5061417;28;20457;-60
2023/08/07 00:15:01;;;;;;;7.50;6.20;;;;;;;;;;5060717;28;20813;-60
2023/08/07 00:17:28;;;;;;;8.20;6.38;;;;;;;;;;5061001;28;20424;-58
2023/08/07 00:19:55;;;;;;;9.32;6.45;;;;;;;;;;5061461;28;20817;-60
2023/08/07 00:22:23;;;;;;;8.88;7.30;;;;;;;;;;5065211;28;20408;-59
2023/08/07 00:24:51;;;;;;;10.63;7.60;;;;;;;;;;5066808;28;20462;-57
2023/08/07 00:27:18;;;;;;;11.98;8.25;;;;;;;;;;5063075;28;20439;-59
2023/08/07 00:29:45;;;;;;;9.57;7.40;;;;;;;;;;5061673;28;20975;-60
2023/08/07 00:32:12;;;;;;;10.07;8.77;;;;;;;;;;5060495;28;20466;-60
2023/08/07 00:34:39;;;;;;;15.50;9.07;;;;;;;;;;5061850;28;20471;-60
2023/08/07 00:37:06;;;;;;;19.02;11.55;;;;;;;;;;5060758;28;20417;-57
2023/08/07 00:39:33;;;;;;;20.63;11.38;;;;;;;;;;5060749;28;20455;-60
2023/08/07 00:42:02;;;;;;;23.98;12.85;;;;;;;;;;5061837;28;20413;-58
2023/08/07 00:44:29;;;;;;;24.48;13.30;;;;;;;;;;5060869;28;20480;-59
2023/08/07 00:46:56;;;;;;;23.00;12.10;;;;;;;;;;5061921;28;20908;-59
2023/08/07 00:49:23;;;;;;;21.60;12.05;;;;;;;;;;5060290;28;20418;-60
2023/08/07 00:51:50;;;;;;;23.58;13.23;;;;;;;;;;5065781;28;20408;-60
2023/08/07 00:54:19;;;;;;;21.92;11.90;;;;;;;;;;5067136;28;20464;-58
2023/08/07 00:56:46;;;;;;;20.92;12.05;;;;;;;;;;5056429;28;20895;-60
2023/08/07 00:59:16;;;;;;;25.40;13.93;;;;;;;;;;5061195;28;20782;-59
2023/08/07 01:01:43;;;;;;;23.45;13.65;;;;;;;;;;5060555;28;20409;-58
2023/08/07 01:04:10;;;;;;;22.90;14.57;;;;;;;;;;5061558;28;20438;-60
2023/08/07 01:06:37;;;;;;;23.02;14.27;;;;;;;;;;5059532;28;20495;-58
2023/08/07 01:09:04;;;;;;;24.52;13.02;;;;;;;;;;5061842;28;20416;-59
2023/08/07 01:11:35;;;;;;;21.90;12.07;;;;;;;;;;5059374;28;20440;-59
2023/08/07 01:14:06;;;;;;;18.93;12.43;;;;;;;;;;5057230;28;20457;-58
2023/08/07 01:16:37;;;;;;;20.40;13.10;;;;;;;;;;5059427;28;20401;-59
2023/08/07 01:19:06;;;;;;;20.80;13.55;;;;;;;;;;5061570;28;20747;-58
2023/08/07 01:21:34;;;;;;;21.30;13.13;;;;;;;;;;5059124;28;20409;-60
2023/08/07 01:24:02;;;;;;;21.65;13.77;;;;;;;;;;5063969;28;20499;-59
2023/08/07 01:26:29;;;;;;;20.02;13.75;;;;;;;;;;5059115;28;20906;-60
2023/08/07 01:28:59;;;;;;;19.73;13.90;;;;;;;;;;5056441;28;20414;-60
2023/08/07 01:31:27;;;;;;;23.63;14.90;;;;;;;;;;5058919;28;20836;-60
2023/08/07 01:33:58;;;;;;;23.20;14.80;;;;;;;;;;5062533;28;20407;-60
2023/08/07 01:36:26;;;;;;;23.98;14.52;;;;;;;;;;5059040;28;20521;-60
2023/08/07 01:38:54;;;;;;;20.92;14.18;;;;;;;;;;5062187;28;20416;-61
2023/08/07 01:41:23;;;;;;;31.13;17.02;;;;;;;;;;5058958;28;20895;-60
2023/08/07 01:43:50;;;;;;;25.73;16.38;;;;;;;;;;5061944;28;20411;-62
2023/08/07 01:46:17;;;;;;;24.02;15.73;;;;;;;;;;5057935;28;20489;-59
2023/08/07 01:48:44;;;;;;;25.35;16.23;;;;;;;;;;5062134;28;20407;-60
2023/08/07 01:51:11;;;;;;;22.60;14.70;;;;;;;;;;5059073;28;20956;-60
2023/08/07 01:53:38;;;;;;;21.05;13.18;;;;;;;;;;5066844;28;20438;-60
2023/08/07 01:56:05;;;;;;;19.75;12.00;;;;;;;;;;5062493;28;20473;-59
2023/08/07 01:58:34;;;;;;;17.38;10.65;;;;;;;;;;5060404;28;20413;-59
2023/08/07 02:01:01;;;;;;;15.95;10.07;;;;;;;;;;5059502;28;20900;-59
2023/08/07 02:03:28;;;;;;;15.90;9.50;;;;;;;;;;5060363;28;20413;-60
2023/08/07 02:05:55;;;;;;;15.90;9.90;;;;;;;;;;5059764;28;21024;-59
2023/08/07 02:08:22;;;;;;;14.73;9.15;;;;;;;;;;5056233;28;20405;-60
2023/08/07 02:10:49;;;;;;;15.85;8.63;;;;;;;;;;5062221;28;20901;-61
2023/08/07 02:13:16;;;;;;;16.33;8.80;;;;;;;;;;5059227;28;20413;-61
2023/08/07 02:15:44;;;;;;;12.27;8.32;;;;;;;;;;5064834;28;20406;-61
2023/08/07 02:18:11;;;;;;;10.27;8.18;;;;;;;;;;5067114;28;20475;-60
2023/08/07 02:20:38;;;;;;;12.00;8.15;;;;;;;;;;5056148;28;20413;-60
2023/08/07 02:23:05;;;;;;;9.82;7.20;;;;;;;;;;5063160;28;20466;-60
2023/08/07 02:25:32;;;;;;;8.55;6.20;;;;;;;;;;5064559;28;20478;-60
2023/08/07 02:27:59;;;;;;;8.55;6.15;;;;;;;;;;5062419;28;20480;-60
2023/08/07 02:30:26;;;;;;;9.80;7.32;;;;;;;;;;5058767;28;20823;-59
2023/08/07 02:32:54;;;;;;;8.88;6.20;;;;;;;;;;5060816;28;20407;-64
2023/08/07 02:35:21;;;;;;;7.82;5.57;;;;;;;;;;5058929;28;20467;-59
2023/08/07 02:37:48;;;;;;;8.45;6.10;;;;;;;;;;5054480;28;20726;-61
2023/08/07 02:40:17;;;;;;;8.90;6.00;;;;;;;;;;5058806;28;20421;-60
2023/08/07 02:42:44;;;;;;;7.40;6.13;;;;;;;;;;5058610;28;20417;-60
2023/08/07 02:45:11;;;;;;;7.93;6.07;;;;;;;;;;5060022;28;20516;-61
2023/08/07 02:47:38;;;;;;;10.35;6.53;;;;;;;;;;5056523;28;21057;-60
2023/08/07 02:50:07;;;;;;;8.68;6.60;;;;;;;;;;5060616;28;20411;-59
2023/08/07 02:52:34;;;;;;;11.35;6.93;;;;;;;;;;5063917;28;20477;-61
2023/08/07 02:55:01;;;;;;;9.75;7.15;;;;;;;;;;5063223;28;20407;-61
2023/08/07 02:57:28;;;;;;;8.25;6.68;;;;;;;;;;5056552;28;20429;-60
2023/08/07 02:59:55;;;;;;;8.65;6.57;;;;;;;;;;5061582;28;20408;-58
2023/08/07 03:02:22;;;;;;;10.50;7.43;;;;;;;;;;5052274;28;20910;-60
2023/08/07 03:04:49;;;;;;;10.10;7.60;;;;;;;;;;5057200;28;20481;-61
2023/08/07 03:07:17;;;;;;;9.95;7.07;;;;;;;;;;5053794;28;20431;-61
2023/08/07 03:09:47;;;;;;;11.20;6.07;;;;;;;;;;5059952;28;20407;-59
2023/08/07 03:12:14;;;;;;;9.73;5.80;;;;;;;;;;5057391;28;20917;-60
2023/08/07 03:14:41;;;;;;;12.75;6.05;;;;;;;;;;5058323;28;20416;-60
2023/08/07 03:17:08;;;;;;;8.93;4.40;;;;;;;;;;5058296;28;20404;-59
2023/08/07 03:19:35;;;;;;;7.70;4.50;;;;;;;;;;5060918;28;20885;-60
2023/08/07 03:22:02;;;;;;;9.00;4.47;;;;;;;;;;5059457;28;20403;-60
2023/08/07 03:24:30;;;;;;;11.00;4.10;;;;;;;;;;5062911;28;20535;-60
2023/08/07 03:26:57;;;;;;;10.23;4.28;;;;;;;;;;5058260;28;20998;-60
2023/08/07 03:29:24;;;;;;;9.52;4.43;;;;;;;;;;5058193;28;20421;-57
2023/08/07 03:31:51;;;;;;;14.05;5.43;;;;;;;;;;5058383;28;20412;-60
2023/08/07 03:34:18;;;;;;;11.80;6.22;;;;;;;;;;5058062;28;20418;-60
2023/08/07 03:36:45;;;;;;;16.70;8.00;;;;;;;;;;5058342;28;20459;-58
2023/08/07 03:39:12;;;;;;;15.05;9.18;;;;;;;;;;5058899;28;20410;-59
2023/08/07 03:41:41;;;;;;;21.52;12.20;;;;;;;;;;5053168;28;20421;-61
2023/08/07 03:44:07;;;;;;;23.80;13.32;;;;;;;;;;5056113;28;20435;-61
2023/08/07 03:46:34;;;;;;;23.38;13.55;;;;;;;;;;5055171;28;20508;-61
2023/08/07 03:49:01;;;;;;;20.00;13.80;;;;;;;;;;5059824;28;20805;-60
2023/08/07 03:51:29;;;;;;;25.48;14.88;;;;;;;;;;5058395;28;20467;-61
2023/08/07 03:53:56;;;;;;;26.98;15.43;;;;;;;;;;5061154;28;20459;-60
2023/08/07 03:56:23;;;;;;;29.40;17.58;;;;;;;;;;5064043;28;20455;-61
2023/08/07 03:58:52;;;;;;;31.17;17.47;;;;;;;;;;5063972;28;20816;-61
2023/08/07 04:01:19;;;;;;;26.30;14.70;;;;;;;;;;5060453;28;20407;-58
2023/08/07 04:03:48;;;;;;;31.00;16.38;;;;;;;;;;5063783;28;20412;-60
2023/08/07 04:06:15;;;;;;;25.93;15.67;;;;;;;;;;5060384;28;20929;-61
2023/08/07 04:08:42;;;;;;;27.77;16.17;;;;;;;;;;5062053;28;20927;-59
2023/08/07 04:11:10;;;;;;;26.95;15.18;;;;;;;;;;5063941;28;20408;-61
2023/08/07 04:13:37;;;;;;;30.05;16.85;;;;;;;;;;5063033;28;20910;-58
2023/08/07 04:16:06;;;;;;;29.67;16.77;;;;;;;;;;5060800;28;20817;-60
2023/08/07 04:18:33;;;;;;;29.35;16.73;;;;;;;;;;5060107;28;20453;-59
2023/08/07 04:21:01;;;;;;;33.33;16.58;;;;;;;;;;5063819;28;20473;-59
2023/08/07 04:23:28;;;;;;;27.90;15.05;;;;;;;;;;5060936;28;20566;-61
2023/08/07 04:25:55;;;;;;;27.00;14.93;;;;;;;;;;5055994;28;20460;-63
2023/08/07 04:28:22;;;;;;;27.83;15.85;;;;;;;;;;5061662;28;20583;-62
2023/08/07 04:30:51;;;;;;;26.20;15.05;;;;;;;;;;5055018;28;20421;-62
2023/08/07 04:33:19;;;;;;;28.07;15.87;;;;;;;;;;5061820;28;20930;-62
2023/08/07 04:35:47;;;;;;;27.15;14.65;;;;;;;;;;5055414;28;20413;-62
2023/08/07 04:38:14;;;;;;;26.20;16.05;;;;;;;;;;5059155;28;20419;-63
2023/08/07 04:40:45;;;;;;;24.63;15.68;;;;;;;;;;5057747;28;20452;-62
2023/08/07 04:43:12;;;;;;;25.27;14.35;;;;;;;;;;5062065;28;20404;-62
2023/08/07 04:45:39;;;;;;;27.08;15.45;;;;;;;;;;5055484;28;20501;-62
2023/08/07 04:48:06;;;;;;;29.42;15.90;;;;;;;;;;5064141;28;20481;-63
2023/08/07 04:50:34;;;;;;;26.33;16.50;;;;;;;;;;5060555;28;20413;-62
2023/08/07 04:53:01;;;;;;;29.85;16.13;;;;;;;;;;5060697;28;20461;-63
2023/08/07 04:55:28;;;;;;;31.17;18.17;;;;;;;;;;5064817;28;20432;-63
2023/08/07 04:57:56;;;;;;;28.52;16.50;;;;;;;;;;5060873;28;20406;-63
2023/08/07 05:00:23;;;;;;;32.30;16.73;;;;;;;;;;5060383;28;20871;-63
2023/08/07 05:02:50;;;;;;;27.40;15.23;;;;;;;;;;5056905;28;20417;-63
2023/08/07 05:05:18;;;;;;;26.95;14.77;;;;;;;;;;5060994;28;20418;-63
2023/08/07 05:07:46;;;;;;;24.83;13.15;;;;;;;;;;5060455;28;20429;-62
2023/08/07 05:10:13;;;;;;;26.63;13.48;;;;;;;;;;5061541;28;20481;-63
2023/08/07 05:12:40;;;;;;;23.83;12.65;;;;;;;;;;5061454;28;21235;-63
2023/08/07 05:15:07;;;;;;;23.08;9.85;;;;;;;;;;5057537;28;20421;-64
2023/08/07 05:17:35;;;;;;;18.48;9.20;;;;;;;;;;5060638;28;20407;-65
2023/08/07 05:20:02;;;;;;;20.85;8.43;;;;;;;;;;5064474;28;20465;-63
2023/08/07 05:22:29;;;;;;;15.63;7.63;;;;;;;;;;5061390;28;20417;-63
2023/08/07 05:24:57;;;;;;;16.73;6.65;;;;;;;;;;5065954;28;20473;-63
2023/08/07 05:27:24;;;;;;;18.85;7.47;;;;;;;;;;5061095;28;20423;-62
2023/08/07 05:29:51;;;;;;;22.23;6.80;;;;;;;;;;5061890;28;20862;-63
2023/08/07 05:32:18;;;;;;;14.55;6.15;;;;;;;;;;5058922;28;20416;-63
2023/08/07 05:34:45;;;;;;;14.88;5.65;;;;;;;;;;5062041;28;20407;-63
2023/08/07 05:37:12;;;;;;;16.08;6.50;;;;;;;;;;5065672;28;20448;-63
2023/08/07 05:39:39;;;;;;;13.30;4.97;;;;;;;;;;5071942;28;20405;-62
2023/08/07 05:42:09;;;;;;;15.60;5.47;;;;;;;;;;5074057;28;20802;-63
2023/08/07 05:44:36;;;;;;;12.27;4.88;;;;;;;;;;5060079;28;20414;-61
2023/08/07 05:47:04;;;;;;;15.98;4.90;;;;;;;;;;5057199;28;20505;-62
2023/08/07 05:49:31;;;;;;;15.25;5.18;;;;;;;;;;5060261;28;20459;-62
2023/08/07 05:51:58;;;;;;;13.13;4.53;;;;;;;;;;5059749;28;20451;-62
2023/08/07 05:54:25;;;;;;;11.43;4.65;;;;;;;;;;5063069;28;20421;-62
2023/08/07 05:56:52;;;;;;;11.48;4.22;;;;;;;;;;5059547;28;20405;-62
2023/08/07 05:59:20;;;;;;;11.15;4.32;;;;;;;;;;5058246;28;20951;-62
2023/08/07 06:01:47;;;;;;;9.38;3.90;;;;;;;;;;5064623;28;20494;-63
2023/08/07 06:04:14;;;;;;;15.45;4.95;;;;;;;;;;5055570;28;20413;-64
2023/08/07 06:06:42;;;;;;;12.70;5.13;;;;;;;;;;5052169;28;20896;-63
2023/08/07 06:09:09;;;;;;;11.10;5.93;;;;;;;;;;5060133;28;20425;-62
2023/08/07 06:11:36;;;;;;;14.75;6.20;;;;;;;;;;5056152;28;20827;-63
2023/08/07 06:14:03;;;;;;;13.35;6.95;;;;;;;;;;5059401;28;20804;-59
2023/08/07 06:16:32;;;;;;;16.23;7.65;;;;;;;;;;5052201;28;20416;-61
2023/08/07 06:18:59;;;;;;;14.20;8.20;;;;;;;;;;5055297;28;20744;-61
2023/08/07 06:21:28;;;;;;;14.07;8.68;;;;;;;;;;5055929;28;20421;-60
2023/08/07 06:23:55;;;;;;;20.20;9.82;;;;;;;;;;5062970;28;20489;-63
2023/08/07 06:26:22;;;;;;;18.10;11.32;;;;;;;;;;5063598;28;20904;-63
2023/08/07 06:28:49;;;;;;;20.27;11.30;;;;;;;;;;5057967;28;20496;-62
2023/08/07 06:31:17;;;;;;;19.48;11.73;;;;;;;;;;5053970;28;20438;-64
2023/08/07 06:33:45;;;;;;;22.15;12.57;;;;;;;;;;5055894;28;20424;-63
2023/08/07 06:36:12;;;;;;;18.55;11.75;;;;;;;;;;5058167;28;20422;-58
2023/08/07 06:38:39;;;;;;;21.10;12.10;;;;;;;;;;5060128;28;20458;-65
2023/08/07 06:41:06;;;;;;;19.92;12.02;;;;;;;;;;5058056;28;20416;-63
2023/08/07 06:43:33;;;;;;;20.98;11.88;;;;;;;;;;5058685;28;20982;-66
2023/08/07 06:46:00;;;;;;;16.77;11.65;;;;;;;;;;5055811;28;20466;-60
2023/08/07 06:48:27;;;;;;;20.77;12.52;;;;;;;;;;5057649;28;20427;-61
2023/08/07 06:50:55;;;;;;;21.38;13.35;;;;;;;;;;5060380;28;20426;-59
2023/08/07 06:53:23;;;;;;;19.98;14.07;;;;;;;;;;5062008;28;21132;-65
2023/08/07 06:55:50;;;;;;;20.05;13.40;;;;;;;;;;5062794;28;20431;-64
2023/08/07 06:58:17;;;;;;;18.92;13.60;;;;;;;;;;5061271;28;20416;-63
2023/08/07 07:00:44;;;;;;;21.13;12.90;;;;;;;;;;5053602;28;20418;-62
2023/08/07 07:03:10;;;;;;;21.10;13.88;;;;;;;;;;5060583;28;20412;-63
2023/08/07 07:05:37;;;;;;;20.10;14.18;;;;;;;;;;5056811;28;20964;-63
2023/08/07 07:08:06;;;;;;;22.70;13.93;;;;;;;;;;5057808;28;20432;-63
2023/08/07 07:10:33;;;;;;;20.48;14.50;;;;;;;;;;5057400;28;20472;-63
2023/08/07 07:13:00;;;;;;;21.17;14.38;;;;;;;;;;5056099;28;20846;-62
2023/08/07 07:15:27;;;;;;;21.40;14.45;;;;;;;;;;5057071;28;20428;-62
2023/08/07 07:17:54;;;;;;;21.58;14.60;;;;;;;;;;5061157;28;20902;-61
2023/08/07 07:20:21;;;;;;;20.20;14.93;;;;;;;;;;5060684;28;20529;-62
2023/08/07 07:22:48;;;;;;;19.25;13.52;;;;;;;;;;5062604;28;20419;-62
2023/08/07 07:25:17;;;;;;;23.67;14.77;;;;;;;;;;5062267;28;20461;-62
2023/08/07 07:27:44;;;;;;;21.60;15.15;;;;;;;;;;5057146;28;20423;-62
2023/08/07 07:30:11;;;;;;;23.48;13.32;;;;;;;;;;5063355;28;20430;-62
2023/08/07 07:32:38;;;;;;;20.83;13.27;;;;;;;;;;5062375;28;20413;-62
2023/08/07 07:35:06;;;;;;;19.25;13.48;;;;;;;;;;5056907;28;20478;-62
2023/08/07 07:37:33;;;;;;;22.77;14.05;;;;;;;;;;5066847;28;20417;-64
2023/08/07 07:40:00;;;;;;;17.90;13.80;;;;;;;;;;5064485;28;20419;-63
2023/08/07 07:42:28;;;;;;;20.33;13.55;;;;;;;;;;5059578;28;20426;-64
2023/08/07 07:44:55;;;;;;;18.85;13.32;;;;;;;;;;5064620;28;20415;-65
2023/08/07 07:47:22;;;;;;;18.73;12.63;;;;;;;;;;5061197;28;20432;-65
2023/08/07 07:49:49;;;;;;;17.48;12.25;;;;;;;;;;5061187;28;20814;-65
2023/08/07 07:52:16;;;;;;;18.70;12.00;;;;;;;;;;5052932;28;20455;-66
2023/08/07 07:54:43;;;;;;;14.48;10.45;;;;;;;;;;5064643;28;20453;-59
2023/08/07 07:57:10;;;;;;;15.05;10.70;;;;;;;;;;5057505;28;20423;-60
2023/08/07 07:59:39;;;;;;;15.57;9.95;;;;;;;;;;5060350;28;20460;-59
2023/08/07 08:02:06;;;;;;;15.52;10.93;;;;;;;;;;5056004;28;20460;-61
2023/08/07 08:04:35;;;;;;;17.48;10.98;;;;;;;;;;5059548;28;20444;-62
2023/08/07 08:07:03;;;;;;;17.30;11.00;;;;;;;;;;5060834;28;20464;-62
2023/08/07 08:09:30;;;;;;;16.10;10.63;;;;;;;;;;5061282;28;20468;-61
2023/08/07 08:11:57;;;;;;;14.80;9.70;;;;;;;;;;5052567;28;20433;-61
2023/08/07 08:14:24;;;;;;;13.60;8.27;;;;;;;;;;5058893;28;20421;-60
2023/08/07 08:16:53;;;;;;;14.50;8.67;;;;;;;;;;5057326;28;20549;-59
2023/08/07 08:19:19;;;;;;;13.32;7.70;;;;;;;;;;5062776;28;20468;-59
2023/08/07 08:21:46;;;;;;;6.63;3.70;;;;;;;;;;5062830;28;20810;-60
2023/08/07 08:24:13;;;;;;;0.10;0.10;;;;;;;;;;5062405;28;20420;-61
2023/08/07 08:26:40;;;;;;;0.35;0.35;;;;;;;;;;5058922;28;20954;-61
2023/08/07 08:29:08;;;;;;;0.10;0.10;;;;;;;;;;5062015;28;20427;-61
2023/08/07 08:31:35;;;;;;;0.10;0.10;;;;;;;;;;5059212;28;20436;-58
2023/08/07 08:34:03;;;;;;;0.10;0.10;;;;;;;;;;5063070;28;20413;-62
2023/08/07 08:36:31;;;;;;;0.10;0.10;;;;;;;;;;5063379;28;20521;-61
2023/08/07 08:38:57;;;;;;;0.20;0.20;;;;;;;;;;5058569;28;20425;-62
2023/08/07 08:41:25;;;;;;;0.05;0.05;;;;;;;;;;5052156;28;20431;-62
2023/08/07 08:43:53;;;;;;;0.20;0.20;;;;;;;;;;5058641;28;20473;-65
2023/08/07 08:46:22;;;;;;;0.10;0.10;;;;;;;;;;5059733;28;20834;-64
2023/08/07 08:48:52;;;;;;;0.17;0.17;;;;;;;;;;5058744;28;20465;-61
2023/08/07 08:51:21;;;;;;;0.13;0.13;;;;;;;;;;5059348;28;20523;-62
2023/08/07 08:53:49;;;;;;;0.10;0.10;;;;;;;;;;5065831;28;20416;-61
2023/08/07 08:56:17;;;;;;;0.20;0.20;;;;;;;;;;5059678;28;20427;-63
2023/08/07 08:58:44;;;;;;;0.30;0.30;;;;;;;;;;5058933;28;21200;-62
2023/08/07 09:01:11;;;;;;;0.10;0.10;;;;;;;;;;5049978;28;20417;-62
2023/08/07 09:03:38;;;;;;;0.17;0.17;;;;;;;;;;5052523;28;20766;-62
2023/08/07 09:06:06;;;;;;;0.15;0.15;;;;;;;;;;5058685;28;20540;-61
2023/08/07 09:08:36;;;;;;;0.10;0.10;;;;;;;;;;5060692;28;20468;-62
2023/08/07 09:11:03;;;;;;;0.10;0.10;;;;;;;;;;5060648;28;20574;-63
2023/08/07 09:13:31;;;;;;;0.20;0.20;;;;;;;;;;5063520;28;20472;-63
2023/08/07 09:16:00;;;;;;;0.20;0.20;;;;;;;;;;5059905;28;20483;-63
2023/08/07 09:18:27;;;;;;;0.20;0.20;;;;;;;;;;5063907;28;20472;-63
2023/08/07 09:20:54;;;;;;;0.10;0.10;;;;;;;;;;5064771;28;20415;-63
2023/08/07 09:23:21;;;;;;;0.10;0.10;;;;;;;;;;5065451;28;20438;-62
2023/08/07 09:26:00;;;;;;;0.10;0.10;;;;;;;;;;5061055;28;20483;-63
2023/08/07 09:28:27;;;;;;;0.10;0.10;;;;;;;;;;5051287;28;20432;-62
2023/08/07 09:30:54;;;;;;;0.10;0.10;;;;;;;;;;5059373;28;20422;-61
2023/08/07 09:33:26;;;;;;;0.10;0.10;;;;;;;;;;5054755;28;20430;-65
2023/08/07 09:35:53;;;;;;;0.10;0.10;;;;;;;;;;5057531;28;20858;-65
2023/08/07 09:38:20;;;;;;;0.40;0.40;;;;;;;;;;5056172;28;20415;-58
2023/08/07 09:40:47;;;;;;;0.10;0.10;;;;;;;;;;5063785;28;20423;-61
2023/08/07 09:43:22;;;;;;;0.10;0.10;;;;;;;;;;5058361;28;20428;-63
2023/08/07 09:45:51;;;;;;;0.17;0.17;;;;;;;;;;5058001;28;20500;-63
2023/08/07 09:48:27;;;;;;;0.10;0.10;;;;;;;;;;5061800;28;20427;-63
2023/08/07 09:50:55;;;;;;;0.10;0.10;;;;;;;;;;5057017;28;20462;-63
2023/08/07 09:53:26;;;;;;;0.10;0.10;;;;;;;;;;5065065;28;20901;-61
2023/08/07 09:55:54;;;;;;;0.10;0.10;;;;;;;;;;5058341;28;20445;-61
2023/08/07 09:58:22;;;;;;;0.20;0.20;;;;;;;;;;5062865;28;20407;-63
2023/08/07 10:00:49;;;;;;;0.50;0.50;;;;;;;;;;5066320;28;21080;-65
2023/08/07 10:03:17;;;;;;;0.10;0.10;;;;;;;;;;5053460;28;20417;-65
2023/08/07 10:05:45;;;;;;;0.10;0.10;;;;;;;;;;5057295;28;20429;-66
2023/08/07 10:08:12;;;;;;;0.20;0.20;;;;;;;;;;5058139;28;20536;-62
2023/08/07 10:10:40;;;;;;;0.10;0.10;;;;;;;;;;5058972;28;20425;-65
2023/08/07 10:13:07;;;;;;;0.10;0.10;;;;;;;;;;5061505;28;20416;-65
2023/08/07 10:15:35;;;;;;;0.20;0.20;;;;;;;;;;5056288;28;20423;-63
2023/08/07 10:18:02;;;;;;;0.10;0.10;;;;;;;;;;5060922;28;20465;-64
2023/08/07 10:20:30;;;;;;;0.13;0.13;;;;;;;;;;5055728;28;20411;-62
2023/08/07 10:22:58;;;;;;;0.20;0.20;;;;;;;;;;5062780;28;20412;-62
2023/08/07 10:25:26;;;;;;;0.20;0.20;;;;;;;;;;5061871;28;20485;-63
2023/08/07 10:27:54;;;;;;;0.10;0.10;;;;;;;;;;5052077;28;20448;-61
2023/08/07 10:30:22;;;;;;;0.10;0.10;;;;;;;;;;5060717;28;20424;-61
2023/08/07 10:32:51;;;;;;;0.10;0.10;;;;;;;;;;5053474;28;20479;-60
2023/08/07 10:35:27;;;;;;;0.10;0.10;;;;;;;;;;5049189;28;20421;-61
2023/08/07 10:37:54;;;;;;;0.10;0.10;;;;;;;;;;5056137;28;20490;-61
2023/08/07 10:40:22;;;;;;;0.10;0.10;;;;;;;;;;5054058;28;20817;-60
2023/08/07 10:42:53;;;;;;;0.20;0.20;;;;;;;;;;5056886;28;20483;-61
2023/08/07 10:45:22;;;;;;;0.15;0.15;;;;;;;;;;5056890;28;20421;-62
2023/08/07 10:47:59;;;;;;;0.10;0.10;;;;;;;;;;5053187;28;20792;-62
2023/08/07 10:50:30;;;;;;;0.10;0.10;;;;;;;;;;5049799;28;20449;-62
2023/08/07 10:52:57;;;;;;;0.10;0.10;;;;;;;;;;5060811;28;20443;-62
2023/08/07 10:55:25;;;;;;;0.10;0.10;;;;;;;;;;5063400;28;20925;-62
2023/08/07 10:57:52;;;;;;;0.10;0.10;;;;;;;;;;5057674;28;20838;-62
2023/08/07 11:00:23;;;;;;;0.10;0.10;;;;;;;;;;5052400;28;20425;-64
2023/08/07 11:02:52;;;;;;;0.60;0.60;;;;;;;;;;5061149;28;20498;-61
2023/08/07 11:05:20;;;;;;;0.20;0.20;;;;;;;;;;5052147;28;20479;-59
2023/08/07 11:07:47;;;;;;;0.10;0.10;;;;;;;;;;5059628;28;20420;-62
2023/08/07 11:10:16;;;;;;;0.10;0.10;;;;;;;;;;5059344;28;21055;-62
2023/08/07 11:12:43;;;;;;;0.20;0.20;;;;;;;;;;5061067;28;20503;-62
2023/08/07 11:15:14;;;;;;;0.20;0.20;;;;;;;;;;5061780;28;20424;-61
2023/08/07 11:17:42;;;;;;;0.10;0.10;;;;;;;;;;5060762;28;20484;-62
2023/08/07 11:20:10;;;;;;;0.10;0.10;;;;;;;;;;5065655;28;20490;-61
2023/08/07 11:22:39;;;;;;;0.15;0.15;;;;;;;;;;5065348;28;20427;-62
2023/08/07 11:25:09;;;;;;;0.20;0.20;;;;;;;;;;5069682;28;20415;-62
2023/08/07 11:27:36;;;;;;;0.10;0.10;;;;;;;;;;5058589;28;20405;-62
2023/08/07 11:30:04;;;;;;;0.10;0.10;;;;;;;;;;5064492;28;20484;-62
2023/08/07 11:32:31;;;;;;;0.10;0.10;;;;;;;;;;5060295;28;20422;-62
2023/08/07 11:34:58;;;;;;;0.10;0.10;;;;;;;;;;5063469;28;20415;-63
2023/08/07 11:37:25;;;;;;;0.30;0.20;;;;;;;;;;5060720;28;20415;-62
2023/08/07 11:39:53;;;;;;;0.10;0.10;;;;;;;;;;5062425;28;20467;-62
2023/08/07 11:42:23;;;;;;;0.10;0.10;;;;;;;;;;5057815;28;20949;-62
2023/08/07 11:44:50;;;;;;;0.10;0.10;;;;;;;;;;5062596;28;20409;-61
2023/08/07 11:47:17;;;;;;;0.20;0.20;;;;;;;;;;5061488;28;20946;-62
2023/08/07 11:49:44;;;;;;;0.10;0.10;;;;;;;;;;5060011;28;20524;-62
2023/08/07 11:52:13;;;;;;;0.20;0.20;;;;;;;;;;5062588;28;20484;-59
2023/08/07 11:54:40;;;;;;;0.20;0.20;;;;;;;;;;5059963;28;20428;-60
2023/08/07 11:57:17;;;;;;;0.20;0.20;;;;;;;;;;5056325;28;20424;-62
2023/08/07 11:59:45;;;;;;;0.10;0.10;;;;;;;;;;5056403;28;20420;-62
2023/08/07 12:02:12;;;;;;;0.10;0.10;;;;;;;;;;5054895;28;20445;-62
2023/08/07 12:04:39;;;;;;;0.10;0.10;;;;;;;;;;5059208;28;20413;-61
2023/08/07 12:07:10;;;;;;;0.20;0.13;;;;;;;;;;5059158;28;20942;-61
2023/08/07 12:09:38;;;;;;;0.20;0.20;;;;;;;;;;5061534;28;20442;-61
2023/08/07 12:12:06;;;;;;;0.20;0.20;;;;;;;;;;5055729;28;20411;-61
2023/08/07 12:14:34;;;;;;;9.07;2.93;;;;;;;;;;5059200;28;20475;-61
2023/08/07 12:17:03;;;;;;;7.22;2.90;;;;;;;;;;5060896;28;20900;-59
2023/08/07 12:19:37;;;;;;;7.63;2.40;;;;;;;;;;5054811;28;20496;-59
2023/08/07 12:22:08;;;;;;;5.95;2.50;;;;;;;;;;5052760;28;21306;-58
2023/08/07 12:24:37;;;;;;;7.10;2.42;;;;;;;;;;5065868;28;20487;-62
2023/08/07 12:27:04;;;;;;;6.88;2.50;;;;;;;;;;5061735;28;20496;-60
2023/08/07 12:29:31;;;;;;;6.43;2.40;;;;;;;;;;5058976;28;20431;-61
2023/08/07 12:32:01;;;;;;;8.63;2.60;;;;;;;;;;5058445;28;20490;-61
2023/08/07 12:34:28;;;;;;;8.70;2.57;;;;;;;;;;5055997;28;20441;-58
2023/08/07 12:36:55;;;;;;;8.10;2.67;;;;;;;;;;5051379;28;20410;-60
2023/08/07 12:39:22;;;;;;;6.22;2.13;;;;;;;;;;5057344;28;20491;-61
2023/08/07 12:41:49;;;;;;;6.23;2.40;;;;;;;;;;5050832;28;20969;-60
2023/08/07 12:44:16;;;;;;;8.38;2.45;;;;;;;;;;5056055;28;20468;-58
2023/08/07 12:46:43;;;;;;;9.57;3.28;;;;;;;;;;5059538;28;20479;-59
2023/08/07 12:49:11;;;;;;;6.20;2.60;;;;;;;;;;5060436;28;20510;-59
2023/08/07 12:51:38;;;;;;;6.57;2.42;;;;;;;;;;5058251;28;20839;-61
2023/08/07 12:54:05;;;;;;;9.85;2.78;;;;;;;;;;5067575;28;20462;-61
2023/08/07 12:56:32;;;;;;;6.68;2.30;;;;;;;;;;5065445;28;21151;-61
2023/08/07 12:58:59;;;;;;;7.03;2.60;;;;;;;;;;5064186;28;20404;-60
2023/08/07 13:01:26;;;;;;;6.63;2.65;;;;;;;;;;5066302;28;20415;-60
2023/08/07 13:03:53;;;;;;;7.53;2.60;;;;;;;;;;5065307;28;20415;-60
2023/08/07 13:06:22;;;;;;;7.63;2.40;;;;;;;;;;5065212;28;20537;-61
2023/08/07 13:08:49;;;;;;;10.00;2.58;;;;;;;;;;5066958;28;20427;-62
2023/08/07 13:11:16;;;;;;;6.30;2.17;;;;;;;;;;5066399;28;20422;-61
2023/08/07 13:13:43;;;;;;;6.40;2.40;;;;;;;;;;5068552;28;20411;-59
2023/08/07 13:16:11;;;;;;;7.05;2.70;;;;;;;;;;5068679;28;20422;-61
2023/08/07 13:18:37;;;;;;;8.25;2.70;;;;;;;;;;5067748;28;20858;-61
2023/08/07 13:21:04;;;;;;;7.90;2.30;;;;;;;;;;5062463;28;20425;-61
2023/08/07 13:23:33;;;;;;;7.78;2.35;;;;;;;;;;5063856;28;20926;-61
2023/08/07 13:26:00;;;;;;;4.75;2.13;;;;;;;;;;5068168;28;20411;-61
2023/08/07 13:28:28;;;;;;;7.35;2.30;;;;;;;;;;5066324;28;20468;-61
2023/08/07 13:30:56;;;;;;;7.32;2.45;;;;;;;;;;5062088;28;20419;-60
2023/08/07 13:33:23;;;;;;;5.72;2.25;;;;;;;;;;5063100;28;20411;-61
2023/08/07 13:35:50;;;;;;;6.73;2.03;;;;;;;;;;5059618;28;20405;-62
2023/08/07 13:38:18;;;;;;;6.65;2.50;;;;;;;;;;5060169;28;20415;-58
2023/08/07 13:40:46;;;;;;;7.57;2.30;;;;;;;;;;5057060;28;20425;-61
2023/08/07 13:43:13;;;;;;;5.47;2.10;;;;;;;;;;5059581;28;20422;-60
2023/08/07 13:45:40;;;;;;;5.40;2.20;;;;;;;;;;5060505;28;20434;-61
2023/08/07 13:48:09;;;;;;;4.60;2.15;;;;;;;;;;5051262;28;20913;-60
2023/08/07 13:50:38;;;;;;;6.25;2.33;;;;;;;;;;5059898;28;20522;-59
2023/08/07 13:53:05;;;;;;;8.55;2.20;;;;;;;;;;5065052;28;20438;-61
2023/08/07 13:55:32;;;;;;;8.93;2.70;;;;;;;;;;5060870;28;20413;-58
2023/08/07 13:58:00;;;;;;;6.53;2.13;;;;;;;;;;5059594;28;20405;-62
2023/08/07 14:00:28;;;;;;;7.32;2.35;;;;;;;;;;5057674;28;20424;-62
2023/08/07 14:02:55;;;;;;;6.32;2.17;;;;;;;;;;5059027;28;20418;-62
2023/08/07 14:05:22;;;;;;;4.90;2.30;;;;;;;;;;5060437;28;20482;-62
2023/08/07 14:07:49;;;;;;;5.18;1.98;;;;;;;;;;5057425;28;20475;-63
2023/08/07 14:10:16;;;;;;;4.90;1.60;;;;;;;;;;5063062;28;20435;-61
2023/08/07 14:12:43;;;;;;;6.07;1.90;;;;;;;;;;5061578;28;20896;-60
2023/08/07 14:15:12;;;;;;;6.30;2.10;;;;;;;;;;5057189;28;20479;-59
2023/08/07 14:17:39;;;;;;;4.47;1.70;;;;;;;;;;5050457;28;20548;-62
2023/08/07 14:20:08;;;;;;;5.70;2.00;;;;;;;;;;5058248;28;20473;-61
2023/08/07 14:22:36;;;;;;;4.53;1.63;;;;;;;;;;5057096;28;20850;-61
2023/08/07 14:25:04;;;;;;;5.00;1.88;;;;;;;;;;5063262;28;20506;-60
2023/08/07 14:27:33;;;;;;;6.00;2.05;;;;;;;;;;5057356;28;20894;-61
2023/08/07 14:30:00;;;;;;;6.60;1.67;;;;;;;;;;5056916;28;20475;-60
2023/08/07 14:32:28;;;;;;;4.72;2.05;;;;;;;;;;5054875;28;20459;-60
2023/08/07 14:34:55;;;;;;;7.73;1.60;;;;;;;;;;5057646;28;20444;-61